Time;durP1;ratioP1;P1;durP2;ratioP2;P2;SDS_P1;SDS_P2;PMS_P1;PMS_P2;Temp;Humidity;BMP_temperature;BMP_pressure;BME280_temperature;BME280_humidity;BME280_pressure;Samples;Min_cycle;Max_cycle;Signal;HPM_P1;HPM_P2
2023/05/28 00:01:03;;;;;;;3.92;2.72;;;;;;;13.33;50.57;100194.22;5115261;28;20019;-77
2023/05/28 00:03:31;;;;;;;4.07;2.60;;;;;;;13.30;50.75;100189.97;5114208;28;20031;-77
2023/05/28 00:05:57;;;;;;;6.07;2.42;;;;;;;13.15;50.74;100172.41;5114924;28;20023;-77
2023/05/28 00:08:23;;;;;;;4.68;2.83;;;;;;;13.01;50.59;100143.44;5115052;28;20031;-77
2023/05/28 00:10:48;;;;;;;5.03;2.95;;;;;;;13.13;50.73;100161.16;5115295;28;20019;-77
2023/05/28 00:13:14;;;;;;;5.25;3.08;;;;;;;13.21;50.60;100187.78;5114894;28;20728;-77
2023/05/28 00:15:40;;;;;;;4.97;2.90;;;;;;;13.20;50.59;100200.03;5115009;28;20055;-77
2023/05/28 00:18:05;;;;;;;3.83;3.13;;;;;;;13.09;50.68;100170.91;5114838;28;20038;-77
2023/05/28 00:20:31;;;;;;;5.63;2.55;;;;;;;13.08;50.71;100176.22;5114887;28;20020;-77
2023/05/28 00:22:56;;;;;;;5.90;3.45;;;;;;;13.08;50.65;100173.63;5114562;28;20031;-77
2023/05/28 00:25:22;;;;;;;5.95;3.45;;;;;;;12.98;50.43;100165.38;5115136;28;20031;-77
2023/05/28 00:27:47;;;;;;;5.43;3.67;;;;;;;13.12;50.46;100175.16;5115000;28;20032;-77
2023/05/28 00:30:13;;;;;;;8.82;5.40;;;;;;;13.03;50.39;100165.16;5096376;28;20023;-77
2023/05/28 00:32:38;;;;;;;5.80;4.20;;;;;;;12.99;50.42;100154.84;5114789;28;20028;-77
2023/05/28 00:35:04;;;;;;;5.65;3.97;;;;;;;13.11;50.33;100182.16;5114406;28;20034;-77
2023/05/28 00:37:29;;;;;;;5.55;3.38;;;;;;;12.94;50.30;100151.59;5114585;28;20031;-77
2023/05/28 00:39:54;;;;;;;4.60;3.42;;;;;;;13.09;50.73;100178.75;5114536;28;20016;-77
2023/05/28 00:42:20;;;;;;;7.30;3.85;;;;;;;12.99;50.39;100161.84;5114534;28;20039;-77
2023/05/28 00:44:46;;;;;;;7.55;4.10;;;;;;;13.09;50.79;100177.91;5114594;28;20031;-77
2023/05/28 00:47:13;;;;;;;7.75;5.40;;;;;;;13.01;50.82;100169.59;5114247;28;20098;-77
2023/05/28 00:49:38;;;;;;;7.90;5.55;;;;;;;13.00;50.95;100173.97;5114340;28;20031;-77
2023/05/28 00:52:05;;;;;;;7.22;4.28;;;;;;;12.81;50.83;100144.41;5114035;28;20041;-77
2023/05/28 00:54:31;;;;;;;10.88;5.85;;;;;;;12.88;50.90;100159.72;5114060;28;20024;-77
2023/05/28 00:56:57;;;;;;;9.02;6.03;;;;;;;12.83;51.08;100138.19;5114542;28;20032;-77
2023/05/28 00:59:24;;;;;;;7.55;5.15;;;;;;;12.85;51.00;100141.59;5114184;28;20379;-77
2023/05/28 01:01:50;;;;;;;8.77;5.00;;;;;;;12.74;51.09;100134.25;5114200;28;20024;-77
2023/05/28 01:04:16;;;;;;;7.38;5.72;;;;;;;12.80;51.20;100147.94;5113929;28;20023;-77
2023/05/28 01:06:43;;;;;;;8.77;4.65;;;;;;;12.76;51.17;100154.22;5113933;28;20475;-77
2023/05/28 01:09:10;;;;;;;5.78;4.35;;;;;;;12.67;51.25;100132.84;5113918;28;20024;-77
2023/05/28 01:11:36;;;;;;;6.93;3.88;;;;;;;12.67;51.39;100132.00;5113859;28;20023;-77
2023/05/28 01:14:03;;;;;;;5.32;4.03;;;;;;;12.63;51.45;100130.44;5113434;28;20047;-77
2023/05/28 01:16:29;;;;;;;9.35;4.43;;;;;;;12.78;51.33;100145.41;5113929;28;20024;-77
2023/05/28 01:18:55;;;;;;;8.07;5.65;;;;;;;12.77;51.45;100159.41;5113835;28;20486;-77
2023/05/28 01:21:23;;;;;;;9.20;5.15;;;;;;;12.56;51.51;100122.06;5113412;28;20031;-77
2023/05/28 01:23:49;;;;;;;6.80;4.97;;;;;;;12.65;51.52;100146.91;5113842;28;20027;-77
2023/05/28 01:26:16;;;;;;;5.30;4.15;;;;;;;12.68;51.47;100146.75;5113514;28;20363;-77
2023/05/28 01:28:48;;;;;;;7.40;4.75;;;;;;;12.61;51.73;100145.38;5113615;28;20062;-77
2023/05/28 01:31:15;;;;;;;6.55;4.72;;;;;;;12.55;51.78;100146.47;5113291;28;20023;-77
2023/05/28 01:33:44;;;;;;;7.15;5.22;;;;;;;12.61;51.90;100158.44;5113568;28;20418;-77
2023/05/28 01:36:18;;;;;;;6.82;4.95;;;;;;;12.64;51.73;100153.91;5113107;28;20069;-77
2023/05/28 01:38:46;;;;;;;8.68;5.22;;;;;;;12.61;51.96;100153.22;5113373;28;20034;-77
2023/05/28 01:41:13;;;;;;;9.48;5.47;;;;;;;12.52;52.01;100140.56;5113174;28;20421;-77
2023/05/28 01:43:40;;;;;;;6.88;4.65;;;;;;;12.53;51.95;100140.50;5113360;28;20364;-77
2023/05/28 01:46:06;;;;;;;5.93;4.28;;;;;;;12.46;52.04;100134.69;5112986;28;20032;-77
2023/05/28 01:48:33;;;;;;;6.30;4.43;;;;;;;12.49;52.10;100128.50;5113422;28;20478;-77
2023/05/28 01:50:59;;;;;;;5.45;4.65;;;;;;;12.40;52.04;100129.78;5113639;28;20020;-77
2023/05/28 01:53:24;;;;;;;8.55;5.80;;;;;;;12.46;51.99;100137.31;5112935;28;20025;-77
2023/05/28 01:55:50;;;;;;;9.10;5.10;;;;;;;12.27;52.22;100106.91;5113120;28;20023;-77
2023/05/28 01:58:16;;;;;;;7.05;4.70;;;;;;;12.42;52.04;100132.31;5112757;28;20031;-77
2023/05/28 02:01:10;;;;;;;5.72;4.22;;;;;;;12.27;51.81;100099.06;5112679;28;20027;-77
2023/05/28 02:03:35;;;;;;;7.35;3.58;;;;;;;12.23;51.82;100098.38;5112926;28;20044;-77
2023/05/28 02:06:01;;;;;;;5.35;3.28;;;;;;;12.26;51.70;100095.59;5113250;28;20435;-77
2023/05/28 02:08:26;;;;;;;7.13;3.55;;;;;;;12.35;51.75;100121.31;5113053;28;20072;-77
2023/05/28 02:10:52;;;;;;;4.03;3.30;;;;;;;12.25;52.08;100117.41;5113024;28;20096;-77
2023/05/28 02:13:17;;;;;;;5.13;3.45;;;;;;;12.17;52.11;100091.63;5112343;28;20080;-77
2023/05/28 02:15:44;;;;;;;4.80;3.30;;;;;;;11.96;52.15;100071.75;5112687;28;20027;-77
2023/05/28 02:18:10;;;;;;;4.40;3.25;;;;;;;12.02;52.06;100091.53;5112717;28;20111;-77
2023/05/28 02:20:36;;;;;;;4.30;2.80;;;;;;;12.05;52.36;100102.69;5112743;28;20023;-77
2023/05/28 02:23:01;;;;;;;5.93;3.08;;;;;;;12.01;52.26;100092.41;5112765;28;20023;-77
2023/05/28 02:25:26;;;;;;;4.35;3.25;;;;;;;12.13;52.46;100121.41;5111785;28;20061;-77
2023/05/28 02:27:52;;;;;;;8.85;3.17;;;;;;;12.05;52.50;100101.81;5112871;28;20032;-77
2023/05/28 02:30:17;;;;;;;5.90;3.10;;;;;;;12.18;52.41;100122.09;5112246;28;20024;-77
2023/05/28 02:32:42;;;;;;;5.10;3.40;;;;;;;12.03;52.63;100107.09;5112735;28;20020;-77
2023/05/28 02:35:08;;;;;;;7.72;3.85;;;;;;;12.09;52.83;100119.03;5112314;28;20020;-77
2023/05/28 02:37:33;;;;;;;6.47;3.42;;;;;;;12.09;52.77;100119.03;5112491;28;20024;-77
2023/05/28 02:39:59;;;;;;;4.22;3.40;;;;;;;12.08;52.87;100131.22;5112505;28;20463;-77
2023/05/28 02:42:24;;;;;;;5.85;3.70;;;;;;;12.11;53.14;100130.25;5112178;28;20096;-77
2023/05/28 02:44:50;;;;;;;6.90;3.28;;;;;;;12.06;53.06;100116.56;5112339;28;20103;-77
2023/05/28 02:47:16;;;;;;;5.72;3.80;;;;;;;12.06;53.19;100116.56;5112091;28;20455;-77
2023/05/28 02:49:41;;;;;;;4.85;3.33;;;;;;;11.88;53.17;100095.59;5112265;28;20023;-77
2023/05/28 02:52:06;;;;;;;6.50;3.40;;;;;;;11.91;53.45;100098.06;5112135;28;20062;-77
2023/05/28 02:54:32;;;;;;;3.83;3.28;;;;;;;11.90;53.40;100104.19;5112142;28;20379;-77
2023/05/28 02:56:57;;;;;;;5.22;3.60;;;;;;;11.87;53.52;100099.09;5112360;28;20387;-77
2023/05/28 02:59:23;;;;;;;3.95;3.45;;;;;;;12.03;53.58;100116.69;5111906;28;20016;-77
2023/05/28 03:01:48;;;;;;;4.45;3.55;;;;;;;11.89;53.56;100099.06;5112351;28;20031;-77
2023/05/28 03:04:13;;;;;;;7.00;3.22;;;;;;;12.04;53.73;100121.84;5112107;28;20394;-77
2023/05/28 03:06:41;;;;;;;7.93;3.63;;;;;;;11.87;53.70;100093.03;5112056;28;20590;-77
2023/05/28 03:09:06;;;;;;;9.27;3.58;;;;;;;11.88;54.01;100095.59;5111881;28;20023;-77
2023/05/28 03:11:31;;;;;;;5.72;3.35;;;;;;;12.09;53.96;100134.69;5112078;28;20077;-77
2023/05/28 03:13:57;;;;;;;4.63;3.13;;;;;;;11.99;53.67;100134.25;5111965;28;20048;-77
2023/05/28 03:16:24;;;;;;;6.43;3.53;;;;;;;11.92;54.13;100122.38;5111724;28;20028;-77
2023/05/28 03:18:50;;;;;;;5.75;3.90;;;;;;;11.91;54.18;100126.75;5112125;28;20118;-77
2023/05/28 03:21:15;;;;;;;5.05;3.55;;;;;;;12.02;54.31;100130.69;5111817;28;20119;-77
2023/05/28 03:23:40;;;;;;;5.97;3.58;;;;;;;12.06;54.45;100140.91;5112344;28;20027;-77
2023/05/28 03:26:06;;;;;;;6.68;3.75;;;;;;;11.91;54.31;100116.31;5111727;28;20024;-77
2023/05/28 03:28:31;;;;;;;6.03;3.60;;;;;;;11.91;54.70;100115.47;5111944;28;20034;-77
2023/05/28 03:30:59;;;;;;;6.25;3.60;;;;;;;12.01;54.48;100142.88;5112114;28;20027;-77
2023/05/28 03:33:24;;;;;;;7.47;3.92;;;;;;;11.92;54.65;100110.19;5111697;28;20439;-77
2023/05/28 03:35:50;;;;;;;4.22;3.50;;;;;;;12.07;54.77;100123.47;5111927;28;20111;-77
2023/05/28 03:38:16;;;;;;;6.38;3.78;;;;;;;12.17;54.74;100128.19;5114591;28;20047;-77
2023/05/28 03:40:42;;;;;;;7.35;3.88;;;;;;;12.16;54.50;100121.28;5115744;28;20028;-77
2023/05/28 03:43:07;;;;;;;8.55;4.22;;;;;;;12.31;54.70;100124.13;5115326;28;20035;-77
2023/05/28 03:45:33;;;;;;;6.15;3.83;;;;;;;12.24;54.94;100113.97;5116004;28;20072;-77
2023/05/28 03:47:59;;;;;;;7.50;4.13;;;;;;;12.24;54.59;100111.34;5115950;28;20028;-77
2023/05/28 03:50:24;;;;;;;6.18;4.47;;;;;;;12.14;54.95;100091.81;5115447;28;20027;-77
2023/05/28 03:52:50;;;;;;;5.25;3.67;;;;;;;12.56;55.07;100150.81;5115613;28;20020;-77
2023/05/28 03:55:16;;;;;;;5.38;3.47;;;;;;;12.49;55.00;100112.81;5115054;28;20024;-77
2023/05/28 03:57:41;;;;;;;8.48;4.20;;;;;;;12.77;55.00;100138.50;5115222;28;20031;-77
2023/05/28 04:00:08;;;;;;;5.68;3.35;;;;;;;12.83;54.79;100137.34;5115319;28;20139;-77
2023/05/28 04:02:34;;;;;;;6.78;3.55;;;;;;;12.83;55.06;100112.06;5115353;28;20506;-77
2023/05/28 04:05:00;;;;;;;4.78;3.72;;;;;;;12.84;54.97;100111.13;5115357;28;20024;-77
2023/05/28 04:07:25;;;;;;;6.22;3.58;;;;;;;13.16;55.12;100121.78;5115162;28;20051;-77
2023/05/28 04:09:51;;;;;;;5.85;3.88;;;;;;;13.72;54.02;100129.38;5115421;28;20019;-77
2023/05/28 04:12:16;;;;;;;7.43;4.10;;;;;;;14.75;52.24;100139.63;5114776;28;20106;-77
2023/05/28 04:14:42;;;;;;;7.90;4.00;;;;;;;15.68;49.78;100102.72;5114817;28;20167;-77
2023/05/28 04:17:08;;;;;;;6.72;4.25;;;;;;;16.56;48.19;100100.75;5115101;28;20020;-77
2023/05/28 04:19:33;;;;;;;6.38;4.15;;;;;;;16.90;47.17;100104.69;5115142;28;20047;-77
2023/05/28 04:21:59;;;;;;;6.35;3.78;;;;;;;16.71;47.39;100122.56;5115019;28;20051;-77
2023/05/28 04:24:24;;;;;;;6.18;4.05;;;;;;;16.44;47.93;100130.44;5114606;28;20114;-77
2023/05/28 04:26:51;;;;;;;6.70;4.50;;;;;;;16.14;48.40;100112.19;5114764;28;20136;-77
2023/05/28 04:29:17;;;;;;;5.88;3.45;;;;;;;16.09;48.44;100122.13;5114663;28;20031;-77
2023/05/28 04:31:43;;;;;;;5.75;4.00;;;;;;;16.21;48.51;100114.31;5114998;28;20016;-77
2023/05/28 04:34:09;;;;;;;4.40;3.63;;;;;;;16.79;47.70;100111.59;5114760;28;20462;-77
2023/05/28 04:36:36;;;;;;;5.15;4.07;;;;;;;17.95;46.12;100128.31;5114803;28;20023;-78
2023/05/28 04:39:04;;;;;;;7.57;3.95;;;;;;;18.73;44.67;100107.91;5114682;28;20121;-77
2023/05/28 04:41:30;;;;;;;6.72;4.20;;;;;;;19.35;43.87;100127.00;5114300;28;20027;-77
2023/05/28 04:43:56;;;;;;;5.28;4.13;;;;;;;19.18;44.47;100122.97;5114595;28;20115;-77
2023/05/28 04:46:25;;;;;;;5.50;3.83;;;;;;;18.85;44.72;100126.31;5114451;28;20059;-78
2023/05/28 04:48:51;;;;;;;4.38;3.67;;;;;;;18.34;45.34;100092.19;5114260;28;20469;-78
2023/05/28 04:51:18;;;;;;;6.63;3.92;;;;;;;18.31;45.18;100100.31;5114207;28;20061;-78
2023/05/28 04:53:43;;;;;;;10.02;3.85;;;;;;;18.39;45.88;100100.59;5114263;28;20055;-78
2023/05/28 04:56:10;;;;;;;7.30;4.00;;;;;;;18.79;45.24;100108.28;5114075;28;20066;-78
2023/05/28 04:58:36;;;;;;;6.07;3.75;;;;;;;19.57;44.09;100105.06;5114006;28;20417;-78
2023/05/28 05:01:01;;;;;;;6.57;3.60;;;;;;;20.72;42.96;100132.22;5114348;28;20020;-78
2023/05/28 05:03:27;;;;;;;6.03;3.90;;;;;;;21.10;41.22;100134.38;5114096;28;20024;-77
2023/05/28 05:05:52;;;;;;;5.90;3.50;;;;;;;20.73;41.66;100148.00;5114059;28;20483;-78
2023/05/28 05:08:17;;;;;;;7.85;3.67;;;;;;;19.98;43.00;100119.56;5113753;28;20471;-78
2023/05/28 05:10:43;;;;;;;5.93;3.63;;;;;;;19.59;43.75;100124.28;5113944;28;20024;-78
2023/05/28 05:13:08;;;;;;;7.43;4.55;;;;;;;19.43;43.78;100123.78;5113931;28;20459;-78
2023/05/28 05:15:34;;;;;;;9.88;4.28;;;;;;;19.66;43.61;100141.38;5113672;28;20027;-78
2023/05/28 05:17:59;;;;;;;6.30;4.30;;;;;;;19.96;43.34;100139.97;5113926;28;20053;-78
2023/05/28 05:20:26;;;;;;;5.13;3.95;;;;;;;20.48;43.21;100127.97;5113837;28;20027;-78
2023/05/28 05:22:52;;;;;;;7.05;4.15;;;;;;;21.31;41.20;100137.03;5094460;28;20131;-78
2023/05/28 05:25:17;;;;;;;5.07;3.72;;;;;;;21.89;40.73;100129.47;5113340;28;20470;-78
2023/05/28 05:27:42;;;;;;;8.52;4.00;;;;;;;21.58;40.67;100129.47;5113688;28;20499;-78
2023/05/28 05:30:08;;;;;;;8.45;4.15;;;;;;;21.04;41.76;100129.59;5113722;28;20104;-78
2023/05/28 05:32:33;;;;;;;5.45;3.95;;;;;;;20.86;41.87;100135.44;5113311;28;20035;-78
2023/05/28 05:34:59;;;;;;;7.30;4.35;;;;;;;20.73;42.32;100126.81;5113390;28;20110;-78
2023/05/28 05:37:24;;;;;;;5.53;3.75;;;;;;;20.80;42.67;100120.03;5113125;28;20110;-78
2023/05/28 05:39:50;;;;;;;5.53;4.07;;;;;;;21.32;41.75;100129.00;5113232;28;20049;-78
2023/05/28 05:42:15;;;;;;;7.70;3.67;;;;;;;21.53;41.44;100122.84;5113040;28;20028;-78
2023/05/28 05:44:40;;;;;;;5.82;4.10;;;;;;;21.42;41.15;100106.06;5113418;28;20412;-78
2023/05/28 05:47:06;;;;;;;11.38;4.78;;;;;;;21.25;41.20;100114.56;5113207;28;20569;-78
2023/05/28 05:49:31;;;;;;;8.65;4.47;;;;;;;21.02;41.61;100095.28;5113029;28;20495;-78
2023/05/28 05:51:56;;;;;;;5.50;3.75;;;;;;;21.27;41.55;100133.81;5113247;28;20023;-78
2023/05/28 05:54:22;;;;;;;8.50;5.95;;;;;;;21.01;41.59;100106.00;5112862;28;20089;-78
2023/05/28 05:56:48;;;;;;;4.57;3.60;;;;;;;21.13;41.71;100110.28;5112812;28;20131;-78
2023/05/28 05:59:13;;;;;;;6.15;4.18;;;;;;;21.52;41.33;100118.53;5113031;28;20110;-78
2023/05/28 06:01:39;;;;;;;9.13;4.35;;;;;;;22.40;39.82;100129.41;5112128;28;20134;-78
2023/05/28 06:04:04;;;;;;;6.60;4.10;;;;;;;23.15;39.52;100128.00;5112953;28;20034;-78
2023/05/28 06:06:29;;;;;;;6.07;3.90;;;;;;;23.72;39.49;100122.75;5112846;28;20019;-78
2023/05/28 06:08:55;;;;;;;6.00;3.58;;;;;;;24.02;38.67;100120.81;5112828;28;20019;-78
2023/05/28 06:11:23;;;;;;;4.00;3.30;;;;;;;24.06;37.88;100096.47;5112794;28;20055;-78
2023/05/28 06:13:50;;;;;;;5.18;3.65;;;;;;;24.93;37.27;100091.56;5112874;28;20415;-78
2023/05/28 06:16:15;;;;;;;5.05;3.40;;;;;;;25.78;36.31;100119.41;5112578;28;20142;-78
2023/05/28 06:18:41;;;;;;;5.03;3.47;;;;;;;26.47;36.31;100118.44;5112739;28;20574;-78
2023/05/28 06:21:07;;;;;;;4.18;3.38;;;;;;;26.43;35.43;100110.88;5112773;28;20530;-78
2023/05/28 06:23:33;;;;;;;4.05;3.67;;;;;;;26.30;36.26;100127.34;5112200;28;20102;-78
2023/05/28 06:25:59;;;;;;;4.97;3.03;;;;;;;25.97;35.79;100127.22;5112405;28;20050;-78
2023/05/28 06:28:24;;;;;;;6.20;3.30;;;;;;;26.77;35.27;100122.34;5112482;28;20024;-78
2023/05/28 06:30:50;;;;;;;6.50;3.50;;;;;;;27.48;34.52;100102.16;5112647;28;20031;-78
2023/05/28 06:33:15;;;;;;;5.03;3.25;;;;;;;27.89;33.79;100095.88;5112556;28;20493;-79
2023/05/28 06:35:41;;;;;;;5.35;3.50;;;;;;;28.51;33.42;100104.00;5112409;28;20024;-79
2023/05/28 06:38:06;;;;;;;3.80;2.95;;;;;;;29.47;32.54;100113.34;5112653;28;20042;-79
2023/05/28 06:40:31;;;;;;;4.30;3.03;;;;;;;30.30;31.63;100101.53;5112295;28;20028;-79
2023/05/28 06:43:00;;;;;;;6.85;3.20;;;;;;;30.50;31.26;100109.81;5112461;28;20031;-76
2023/05/28 06:45:26;;;;;;;4.68;3.08;;;;;;;30.45;31.75;100101.50;5112139;28;20479;-76
2023/05/28 06:47:51;;;;;;;3.88;3.05;;;;;;;30.99;31.32;100126.09;5112340;28;20028;-76
2023/05/28 06:50:16;;;;;;;7.65;2.78;;;;;;;31.42;30.51;100109.91;5112147;28;20112;-76
2023/05/28 06:52:42;;;;;;;4.18;2.92;;;;;;;32.74;30.30;100125.94;5112155;28;20055;-76
2023/05/28 06:55:08;;;;;;;3.80;3.03;;;;;;;33.46;29.59;100116.28;5112312;28;20016;-76
2023/05/28 06:57:36;;;;;;;5.05;3.35;;;;;;;33.30;29.31;100118.56;5112104;28;20023;-76
2023/05/28 07:00:09;;;;;;;4.22;3.00;;;;;;;33.14;29.63;100133.28;5112264;28;20051;-76
2023/05/28 07:02:35;;;;;;;4.70;3.70;;;;;;;33.07;29.55;100122.47;5112070;28;20031;-76
2023/05/28 07:05:00;;;;;;;4.47;2.97;;;;;;;33.21;29.40;100126.84;5112117;28;20049;-76
2023/05/28 07:07:26;;;;;;;6.30;3.53;;;;;;;34.04;29.42;100126.34;5112186;28;20023;-76
2023/05/28 07:09:51;;;;;;;6.60;4.20;;;;;;;34.52;28.80;100125.16;5112181;28;20020;-77
2023/05/28 07:12:17;;;;;;;3.83;3.00;;;;;;;34.39;28.33;100126.03;5113559;28;20387;-76
2023/05/28 07:14:42;;;;;;;5.43;3.20;;;;;;;34.01;28.42;100121.41;5115785;28;20050;-76
2023/05/28 07:17:09;;;;;;;6.30;3.88;;;;;;;33.88;28.45;100111.44;5116220;28;20555;-76
2023/05/28 07:19:34;;;;;;;5.95;3.28;;;;;;;34.04;28.43;100126.34;5115850;28;20077;-78
2023/05/28 07:22:00;;;;;;;3.40;3.08;;;;;;;34.29;28.58;100125.63;5116043;28;20031;-78
2023/05/28 07:24:25;;;;;;;4.85;3.33;;;;;;;34.91;28.23;100110.53;5116021;28;20023;-77
2023/05/28 07:26:50;;;;;;;3.47;3.13;;;;;;;34.81;27.82;100110.19;5116165;28;20049;-76
2023/05/28 07:29:18;;;;;;;6.82;4.00;;;;;;;34.70;27.75;100117.13;5115817;28;20077;-77
2023/05/28 07:31:43;;;;;;;5.88;4.03;;;;;;;34.65;27.50;100115.09;5115693;28;20019;-77
2023/05/28 07:34:09;;;;;;;6.15;3.10;;;;;;;34.50;28.13;100107.25;5116036;28;20051;-77
2023/05/28 07:36:34;;;;;;;6.25;3.75;;;;;;;34.37;28.03;100099.19;5115699;28;20157;-77
2023/05/28 07:39:01;;;;;;;4.78;4.25;;;;;;;35.01;27.26;100113.59;5115931;28;20426;-77
2023/05/28 07:41:26;;;;;;;3.33;3.03;;;;;;;35.02;27.48;100117.13;5115445;28;20020;-77
2023/05/28 07:43:51;;;;;;;4.15;3.60;;;;;;;34.53;28.11;100094.34;5115865;28;20034;-77
2023/05/28 07:46:17;;;;;;;4.97;3.10;;;;;;;34.99;27.53;100092.19;5115560;28;20471;-77
2023/05/28 07:48:43;;;;;;;5.22;3.38;;;;;;;35.63;27.49;100105.59;5114003;28;20027;-77
2023/05/28 07:51:10;;;;;;;4.40;3.28;;;;;;;34.94;27.40;100102.00;5115185;28;20020;-77
2023/05/28 07:53:35;;;;;;;5.75;3.67;;;;;;;35.47;27.07;100082.59;5114993;28;20030;-77
2023/05/28 07:56:01;;;;;;;5.40;3.63;;;;;;;35.43;27.02;100097.63;5115274;28;20024;-77
2023/05/28 07:58:26;;;;;;;5.78;3.38;;;;;;;34.53;26.64;100102.47;5114857;28;20031;-77
2023/05/28 08:00:52;;;;;;;3.55;2.97;;;;;;;34.33;27.22;100076.31;5114982;28;20110;-77
2023/05/28 08:03:17;;;;;;;5.30;3.92;;;;;;;34.92;27.67;100095.94;5115100;28;20028;-76
2023/05/28 08:05:43;;;;;;;4.47;3.38;;;;;;;34.54;26.75;100096.00;5114874;28;20074;-76
2023/05/28 08:08:08;;;;;;;3.25;2.80;;;;;;;33.43;27.52;100075.34;5115267;28;20038;-76
2023/05/28 08:10:33;;;;;;;3.70;3.20;;;;;;;31.90;28.77;100093.03;5115048;28;20032;-76
2023/05/28 08:12:59;;;;;;;7.90;3.20;;;;;;;30.08;30.50;100088.00;5115116;28;20031;-76
2023/05/28 08:15:24;;;;;;;3.50;3.20;;;;;;;28.79;31.15;100096.28;5114668;28;20146;-77
2023/05/28 08:17:50;;;;;;;4.68;2.60;;;;;;;27.20;31.24;100058.88;5115170;28;20046;-76
2023/05/28 08:20:15;;;;;;;3.63;2.90;;;;;;;25.87;32.70;100079.31;5113862;28;20521;-76
2023/05/28 08:22:40;;;;;;;4.30;2.53;;;;;;;25.14;33.67;100082.28;5114536;28;20024;-76
2023/05/28 08:25:06;;;;;;;4.38;2.30;;;;;;;24.62;34.17;100091.97;5113808;28;20023;-77
2023/05/28 08:27:31;;;;;;;7.68;2.40;;;;;;;23.97;34.03;100091.16;5114587;28;20023;-77
2023/05/28 08:29:57;;;;;;;4.13;2.65;;;;;;;23.64;35.41;100070.28;5114622;28;20028;-77
2023/05/28 08:32:22;;;;;;;3.15;2.25;;;;;;;23.62;35.36;100084.69;5114498;28;20375;-77
2023/05/28 08:34:48;;;;;;;2.80;2.25;;;;;;;23.43;36.16;100085.59;5114013;28;20019;-77
2023/05/28 08:37:13;;;;;;;4.72;2.10;;;;;;;23.14;36.85;100067.03;5114306;28;20032;-77
2023/05/28 08:39:39;;;;;;;6.05;2.45;;;;;;;23.34;36.74;100074.00;5114280;28;20043;-77
2023/05/28 08:42:05;;;;;;;3.40;2.30;;;;;;;23.42;36.79;100066.13;5114690;28;20160;-77
2023/05/28 08:44:31;;;;;;;4.45;2.35;;;;;;;23.72;35.77;100093.50;5113709;28;20073;-77
2023/05/28 08:46:56;;;;;;;4.10;2.17;;;;;;;23.39;35.09;100063.78;5114114;28;20023;-77
2023/05/28 08:49:45;;;;;;;4.30;2.20;;;;;;;23.37;35.52;100076.34;5114055;28;20057;-77
2023/05/28 08:52:15;;;;;;;3.83;2.20;;;;;;;23.20;36.01;100062.97;5113398;28;20040;-77
2023/05/28 08:54:41;;;;;;;4.57;2.78;;;;;;;23.14;37.11;100078.50;5113626;28;20089;-77
2023/05/28 08:57:07;;;;;;;4.72;2.63;;;;;;;23.14;37.28;100064.38;5114061;28;20425;-77
2023/05/28 08:59:32;;;;;;;3.47;2.47;;;;;;;23.27;36.63;100072.06;5113581;28;20038;-77
2023/05/28 09:01:57;;;;;;;4.60;2.60;;;;;;;22.88;36.99;100074.69;5114059;28;20135;-77
2023/05/28 09:04:23;;;;;;;4.53;2.47;;;;;;;22.35;37.39;100009.56;5114060;28;20077;-77
2023/05/28 09:06:52;;;;;;;5.75;2.13;;;;;;;22.72;37.60;100069.13;5113311;28;20467;-77
2023/05/28 09:09:18;;;;;;;4.53;2.03;;;;;;;22.55;37.80;100071.50;5113859;28;20037;-77
2023/05/28 09:11:43;;;;;;;5.63;2.70;;;;;;;22.58;38.36;100065.03;5113326;28;20387;-77
2023/05/28 09:14:11;;;;;;;4.72;2.40;;;;;;;22.69;38.31;100056.97;5113369;28;20550;-78
2023/05/28 09:16:40;;;;;;;4.20;3.25;;;;;;;22.85;38.04;100059.91;5113284;28;20028;-78
2023/05/28 09:19:06;;;;;;;3.45;2.42;;;;;;;22.82;38.37;100052.19;5113893;28;20057;-77
2023/05/28 09:21:34;;;;;;;3.33;2.20;;;;;;;22.94;37.78;100052.94;5113326;28;20023;-76
2023/05/28 09:24:00;;;;;;;4.32;2.20;;;;;;;23.14;37.28;100054.59;5113543;28;20058;-76
2023/05/28 09:26:33;;;;;;;2.97;2.22;;;;;;;23.05;37.90;100043.97;5113394;28;20065;-76
2023/05/28 09:28:59;;;;;;;2.85;2.58;;;;;;;22.91;37.39;100051.38;5113384;28;20023;-76
2023/05/28 09:31:32;;;;;;;4.78;2.40;;;;;;;22.71;37.17;100039.06;5114100;28;20030;-76
2023/05/28 09:33:59;;;;;;;4.35;2.55;;;;;;;22.67;37.80;100049.13;5113779;28;20031;-76
2023/05/28 09:36:25;;;;;;;2.85;2.45;;;;;;;22.73;37.81;100058.34;5113391;28;20375;-76
2023/05/28 09:38:50;;;;;;;4.90;2.35;;;;;;;22.67;37.53;100043.00;5113378;28;20069;-76
2023/05/28 09:41:23;;;;;;;5.72;2.40;;;;;;;22.57;37.83;100047.44;5113262;28;20031;-76
2023/05/28 09:44:04;;;;;;;4.30;2.15;;;;;;;22.71;38.61;100049.66;5113134;28;20031;-76
2023/05/28 09:46:34;;;;;;;10.23;5.00;;;;;;;22.38;38.52;100038.50;5113081;28;20383;-76
2023/05/28 09:49:01;;;;;;;9.75;3.22;;;;;;;22.28;38.51;100056.19;5113482;28;20119;-76
2023/05/28 09:51:29;;;;;;;6.22;2.47;;;;;;;22.17;38.59;100058.97;5113255;28;20027;-76
2023/05/28 09:54:00;;;;;;;5.93;2.55;;;;;;;22.32;39.95;100054.94;5112653;28;20084;-76
2023/05/28 09:56:30;;;;;;;;;;;;;;;22.56;39.77;100048.44;5113640;28;20083;-76
2023/05/28 09:59:00;;;;;;;2.47;2.28;;;;;;;22.69;38.76;100027.75;5113045;28;19998;-77
2023/05/28 10:01:33;;;;;;;2.95;2.20;;;;;;;22.89;39.04;100026.75;5113259;28;20030;-90
2023/05/28 10:04:07;;;;;;;3.45;2.50;;;;;;;22.90;38.40;100004.56;5113315;28;20114;-90
2023/05/28 10:06:35;;;;;;;6.30;2.40;;;;;;;23.14;38.02;100027.19;5094259;28;20023;-76
2023/05/28 10:09:02;;;;;;;5.05;2.90;;;;;;;23.04;37.21;100021.03;5111859;28;20161;-76
2023/05/28 10:11:31;;;;;;;3.75;2.80;;;;;;;22.86;37.01;100016.41;5112629;28;20078;-76
2023/05/28 10:13:57;;;;;;;4.53;2.65;;;;;;;22.62;37.30;100022.16;5112081;28;20044;-76
2023/05/28 10:16:24;;;;;;;3.20;2.60;;;;;;;22.47;37.37;100020.06;5112409;28;20032;-76
2023/05/28 10:18:53;;;;;;;3.22;2.00;;;;;;;22.34;37.75;100017.69;5111954;28;20048;-76
2023/05/28 10:21:19;;;;;;;5.85;2.70;;;;;;;22.29;37.95;100028.72;5112181;28;20019;-76
2023/05/28 10:23:46;;;;;;;4.45;2.85;;;;;;;22.54;37.74;100034.44;5112184;28;20394;-76
2023/05/28 10:26:14;;;;;;;2.55;2.35;;;;;;;22.44;37.71;99997.28;5112327;28;20027;-76
2023/05/28 10:28:39;;;;;;;8.07;2.25;;;;;;;22.52;37.00;100018.66;5111854;28;20110;-76
2023/05/28 10:31:07;;;;;;;4.78;2.67;;;;;;;22.41;37.45;100021.44;5112073;28;20131;-76
2023/05/28 10:33:37;;;;;;;9.13;3.00;;;;;;;22.14;37.83;100014.97;5095006;28;20032;-78
2023/05/28 10:36:03;;;;;;;2.88;2.30;;;;;;;22.07;37.87;100018.28;5092106;28;20020;-78
2023/05/28 10:38:30;;;;;;;4.40;2.50;;;;;;;21.95;38.17;100009.59;5101575;28;20028;-78
2023/05/28 10:41:03;;;;;;;5.28;2.95;;;;;;;21.90;38.48;99999.38;5081887;28;20433;-78
2023/05/28 10:43:38;;;;;;;7.18;2.90;;;;;;;22.05;38.53;100010.47;5103300;28;20604;-78
2023/05/28 10:46:09;;;;;;;4.10;2.28;;;;;;;22.10;38.26;100008.25;5101167;28;20016;-76
2023/05/28 10:48:42;;;;;;;3.72;2.50;;;;;;;22.15;37.92;100000.75;5099400;28;20027;-77
2023/05/28 10:51:08;;;;;;;3.22;2.13;;;;;;;22.31;38.17;100004.69;5099625;28;20069;-78
2023/05/28 10:53:33;;;;;;;3.00;2.47;;;;;;;22.31;37.50;99986.09;5100711;28;20479;-77
2023/05/28 10:56:02;;;;;;;4.47;3.03;;;;;;;22.49;37.91;99996.88;5102454;28;20032;-77
2023/05/28 10:58:35;;;;;;;3.38;2.53;;;;;;;22.65;37.45;100005.09;5100705;28;20030;-77
2023/05/28 11:01:12;;;;;;;3.13;1.95;;;;;;;22.69;36.98;100006.50;5102668;28;20020;-77
2023/05/28 11:03:44;;;;;;;3.60;2.38;;;;;;;22.53;37.51;100004.41;5100297;28;20111;-77
2023/05/28 11:06:11;;;;;;;3.75;2.40;;;;;;;22.46;37.12;100005.97;5101527;28;20372;-77
2023/05/28 11:08:47;;;;;;;4.82;2.35;;;;;;;22.42;37.14;99999.25;5099966;28;20107;-77
2023/05/28 11:11:15;;;;;;;3.92;2.63;;;;;;;22.44;37.23;99984.00;5101529;28;20032;-77
2023/05/28 11:13:43;;;;;;;4.80;2.40;;;;;;;22.62;37.18;99997.41;5102350;28;20048;-77
2023/05/28 11:16:10;;;;;;;6.00;2.33;;;;;;;22.61;37.79;99993.94;5100948;28;20051;-77
2023/05/28 11:18:36;;;;;;;3.40;2.25;;;;;;;22.65;37.15;99997.97;5099980;28;20023;-77
2023/05/28 11:21:11;;;;;;;4.00;2.25;;;;;;;22.45;37.03;99975.06;5102173;28;20023;-77
2023/05/28 11:23:39;;;;;;;2.60;2.13;;;;;;;22.64;37.37;100006.09;5100409;28;20028;-77